Impacts METAR Board
IDs:

KFLL - Ft Lauderdale-Hollyw, FL, US

Updated at: 0000 UTC 31 May 2020
Potential Impact None Slight Moderate High
Time 30/12Z 30/13Z 30/14Z 30/15Z 30/16Z 30/17Z 30/18Z 30/19Z 30/20Z 30/21Z 30/22Z 30/23Z 31/00Z
Temp82 84 84 86 87 86 88 86 87 86 85 84 83
Dewpt73 74 74 75 73 74 74 73 72 74 72 73 73
Altim30.02 30.03 30.03 30.03 30.03 30.02 30.01 30.00 29.98 29.96 29.96 29.96 29.97
VIS10 10 10 10 10 10 10 10 10 10 10 10 10
CIG-- -- -- -- -- -- -- -- -- -- -- 250 250
CoverSCTSCTSCTSCTSCTSCTSCTSCTFEWFEWSCTBKNBKN
FltCatVFRVFRVFRVFRVFRVFRVFRVFRVFRVFRVFRVFRVFR
WX--------------------------
WDir120120120110100150110120130120120100120
WSpd8 11 10 10 10 12 10 12 11 13 10 11 12
WGst-- -- -- -- -- -- 19 -- -- -- -- -- --
Raw hourly METARs
KFLL 301153Z 12008KT 10SM SCT024 SCT090 SCT250 28/23 A3002 RMK AO2 SLP166 T02780228 10278 20267 53009
KFLL 301253Z 12011KT 10SM SCT024 SCT250 29/23 A3003 RMK AO2 SLP169 T02890233
KFLL 301353Z 12010KT 10SM SCT026 SCT250 29/23 A3003 RMK AO2 SLP170 T02890233
KFLL 301453Z 11010KT 10SM SCT026 SCT036 SCT250 30/24 A3003 RMK AO2 SLP169 T03000239 50003
KFLL 301553Z 10010KT 10SM SCT026 SCT036 SCT250 31/23 A3003 RMK AO2 SLP167 T03060228
KFLL 301653Z 15012KT 10SM SCT025 SCT250 30/23 A3002 RMK AO2 SLP165 T03000233
KFLL 301753Z 11010G19KT 10SM SCT027 SCT035 SCT250 31/23 A3001 RMK AO2 SLP161 T03110233 10311 20278 58008
KFLL 301853Z 12012KT 10SM FEW029 FEW037 SCT250 30/23 A3000 RMK AO2 SLP157 T03000228
KFLL 301953Z 13011KT 10SM FEW027 FEW250 31/22 A2998 RMK AO2 SLP152 T03060222
KFLL 302053Z 12013KT 10SM FEW027 FEW250 30/23 A2996 RMK AO2 SLP145 T03000233 58016
KFLL 302153Z 12010KT 10SM FEW027 SCT250 29/22 A2996 RMK AO2 SLP145 T02940222
KFLL 302253Z 10011KT 10SM FEW027 FEW150 BKN250 29/23 A2996 RMK AO2 SLP144 T02890228
KFLL 302353Z 12012KT 10SM FEW027 SCT100 SCT150 BKN250 28/23 A2997 RMK AO2 SLP149 T02830228 10311 20283 53004



Page loaded:  00:34 UTC  |   05:34 PM Pacific  |   06:34 PM Mountain  |   07:34 PM Central  |   08:34 PM Eastern

 

ADVISORIES

FORECASTS

FORECASTS

OBSERVATIONS

USER TOOLS

ABOUT US